createdAt,value
2019-05-13T00:02:19.816Z,66.94
2019-05-13T00:04:53.098Z,67.01
2019-05-13T00:07:24.080Z,67.73
2019-05-13T00:09:55.308Z,67.95
2019-05-13T00:12:26.548Z,67.92
2019-05-13T00:14:57.743Z,67.99
2019-05-13T00:17:29.010Z,67.98
2019-05-13T00:20:00.275Z,68.12
2019-05-13T00:22:33.867Z,68.29
2019-05-13T00:25:04.389Z,69.09
2019-05-13T00:27:35.779Z,69.11
2019-05-13T00:30:09.210Z,69.57
2019-05-13T00:32:40.482Z,69.52
2019-05-13T00:35:14.215Z,69.74
2019-05-13T00:37:45.731Z,70.08
2019-05-13T00:40:17.084Z,70.99
2019-05-13T00:42:48.258Z,71.74
2019-05-13T00:45:19.537Z,71.52
2019-05-13T00:47:50.784Z,71.80
2019-05-13T00:50:24.018Z,71.91
2019-05-13T00:52:54.872Z,72.33
2019-05-13T00:55:26.085Z,72.68
2019-05-13T00:57:57.394Z,72.87
2019-05-13T01:00:28.772Z,72.62
2019-05-13T01:02:59.972Z,73.19
2019-05-13T01:05:31.218Z,72.95
2019-05-13T01:08:04.257Z,73.56
2019-05-13T01:10:35.552Z,73.58
2019-05-13T01:13:06.748Z,73.91
2019-05-13T01:15:37.996Z,74.94
2019-05-13T01:18:09.213Z,74.54
2019-05-13T01:20:40.435Z,74.87
2019-05-13T01:23:13.890Z,74.78
2019-05-13T01:25:44.727Z,74.72
2019-05-13T01:28:15.918Z,74.83
2019-05-13T01:30:47.180Z,74.85
2019-05-13T01:33:18.470Z,75.19
2019-05-13T01:35:49.732Z,74.90
2019-05-13T01:38:21.166Z,75.22
2019-05-13T01:40:53.999Z,75.69
2019-05-13T01:43:25.202Z,76.11
2019-05-13T01:45:56.475Z,75.68
2019-05-13T01:48:27.764Z,75.83
2019-05-13T01:50:58.974Z,75.78
2019-05-13T01:53:30.230Z,76.03
2019-05-13T01:56:03.648Z,76.17
2019-05-13T01:58:34.424Z,76.25
2019-05-13T02:01:05.772Z,76.83
2019-05-13T02:03:37.076Z,76.96
2019-05-13T02:06:08.291Z,77.16
2019-05-13T02:08:39.441Z,77.20
2019-05-13T02:11:10.717Z,77.39
2019-05-13T02:13:44.489Z,77.83
2019-05-13T02:16:14.840Z,78.42
2019-05-13T02:18:46.085Z,78.62
2019-05-13T02:21:17.341Z,78.62
2019-05-13T02:23:48.677Z,78.76
2019-05-13T02:26:19.905Z,79.05
2019-05-13T02:28:51.108Z,79.21
2019-05-13T02:31:38.911Z,79.29
2019-05-13T02:33:55.216Z,79.52
2019-05-13T02:36:26.494Z,79.70
2019-05-13T02:38:57.747Z,80.26
2019-05-13T02:41:29.020Z,80.46
2019-05-13T02:44:03.208Z,80.78
2019-05-13T02:46:34.033Z,81.17
2019-05-13T02:49:05.538Z,81.40
2019-05-13T02:51:36.784Z,81.40
2019-05-13T02:54:07.979Z,82.22
2019-05-13T02:56:41.584Z,82.60
2019-05-13T02:59:13.210Z,82.71
2019-05-13T03:01:44.729Z,82.70
2019-05-13T03:04:15.934Z,82.83
2019-05-13T03:06:47.140Z,82.68
2019-05-13T03:09:18.371Z,83.25
2019-05-13T03:11:53.203Z,83.70
2019-05-13T03:14:23.947Z,83.99
2019-05-13T03:17:03.256Z,84.43
2019-05-13T03:19:34.065Z,84.66
2019-05-13T03:22:05.342Z,84.95
2019-05-13T03:24:36.590Z,85.37
2019-05-13T03:27:07.779Z,85.47
2019-05-13T03:29:39.015Z,85.38
2019-05-13T03:32:15.755Z,85.44
2019-05-13T03:34:45.578Z,85.54
2019-05-13T03:37:16.737Z,85.50
2019-05-13T03:39:52.145Z,85.45
2019-05-13T03:42:26.275Z,85.60
2019-05-13T03:45:03.096Z,85.62
2019-05-13T03:47:35.425Z,85.90
2019-05-13T03:50:08.525Z,86.03
2019-05-13T03:52:43.117Z,86.04
2019-05-13T03:55:13.311Z,86.19
2019-05-13T03:57:44.644Z,86.26
2019-05-13T04:00:16.384Z,85.88
2019-05-13T04:02:48.087Z,85.72
2019-05-13T04:05:22.478Z,85.65
2019-05-13T04:07:52.883Z,85.09
2019-05-13T04:10:24.130Z,84.59
2019-05-13T04:12:55.564Z,84.42
2019-05-13T04:15:26.853Z,84.49
2019-05-13T04:18:02.537Z,84.79
2019-05-13T04:20:33.263Z,84.54
2019-05-13T04:23:04.409Z,84.46
2019-05-13T04:25:39.593Z,84.12
2019-05-13T04:28:08.793Z,83.63
2019-05-13T04:30:43.358Z,82.43
2019-05-13T04:33:14.161Z,81.71
2019-05-13T04:35:45.744Z,81.05
2019-05-13T04:38:16.913Z,80.02
2019-05-13T04:40:48.152Z,79.12
2019-05-13T04:43:23.205Z,78.37
2019-05-13T04:45:52.738Z,77.87
2019-05-13T04:48:24.195Z,77.61
2019-05-13T04:50:55.792Z,76.76
2019-05-13T04:53:27.230Z,76.55
2019-05-13T04:56:03.075Z,76.99
2019-05-13T04:58:35.513Z,75.17
2019-05-13T05:01:55.354Z,75.11
2019-05-13T05:04:54.805Z,74.68
2019-05-13T05:08:24.670Z,74.50
2019-05-13T05:12:04.908Z,74.14
2019-05-13T05:15:52.253Z,74.00
2019-05-13T05:19:24.883Z,73.71
2019-05-13T05:22:17.808Z,72.54
2019-05-13T05:25:15.021Z,72.56
2019-05-13T05:28:15.419Z,71.70
2019-05-13T05:31:58.383Z,70.71
2019-05-13T05:35:33.381Z,70.74
2019-05-13T05:38:43.485Z,69.58
2019-05-13T05:41:21.355Z,69.29
2019-05-13T05:43:56.619Z,68.65
2019-05-13T05:46:32.228Z,68.05
2019-05-13T05:49:09.111Z,66.58
2019-05-13T05:51:42.002Z,65.27
2019-05-13T05:54:14.778Z,65.00
2019-05-13T05:56:51.910Z,64.54
2019-05-13T05:59:26.542Z,62.79
2019-05-13T06:02:01.931Z,61.87
2019-05-13T06:04:32.731Z,61.68
2019-05-13T06:07:04.926Z,59.91
2019-05-13T06:09:36.302Z,59.35
2019-05-13T06:12:07.660Z,58.90
2019-05-13T06:14:42.119Z,59.97
2019-05-13T06:17:12.481Z,59.07
2019-05-13T06:19:44.367Z,59.10
2019-05-13T06:22:15.512Z,58.55
2019-05-13T06:24:46.865Z,57.85
2019-05-13T06:27:18.097Z,58.11
2019-05-13T06:29:52.634Z,58.36
2019-05-13T06:32:26.246Z,58.92
2019-05-13T06:34:55.395Z,58.55
2019-05-13T06:37:26.778Z,58.13
2019-05-13T06:39:58.235Z,58.20
2019-05-13T06:42:29.523Z,57.05
2019-05-13T06:45:01.927Z,55.60
2019-05-13T06:47:36.155Z,56.53
2019-05-13T06:50:06.605Z,55.36
2019-05-13T06:52:37.871Z,55.05
2019-05-13T06:55:11.575Z,53.97
2019-05-13T06:57:42.667Z,51.87
2019-05-13T07:00:14.125Z,51.44
2019-05-13T07:02:45.345Z,48.88
2019-05-13T07:05:16.706Z,48.09
2019-05-13T07:07:47.938Z,49.21
2019-05-13T07:10:21.480Z,47.56
2019-05-13T07:12:52.118Z,48.02
2019-05-13T07:15:23.412Z,47.48
2019-05-13T07:17:54.613Z,48.06
2019-05-13T07:20:25.885Z,49.42
2019-05-13T07:22:57.094Z,48.78
2019-05-13T07:25:28.349Z,48.59
2019-05-13T07:28:02.257Z,48.03
2019-05-13T07:30:43.389Z,47.24
2019-05-13T07:33:14.836Z,48.77
2019-05-13T07:35:46.702Z,49.00
2019-05-13T07:38:19.196Z,48.41
2019-05-13T07:40:57.599Z,46.50
2019-05-13T07:43:28.772Z,45.58
2019-05-13T07:46:02.057Z,46.17
2019-05-13T07:48:33.342Z,45.66
2019-05-13T07:51:05.031Z,46.16
2019-05-13T07:53:37.567Z,45.41
2019-05-13T07:56:08.855Z,43.74
2019-05-13T07:58:41.831Z,42.93
2019-05-13T08:01:13.145Z,43.04
2019-05-13T08:03:47.105Z,40.67
2019-05-13T08:06:18.370Z,40.59
2019-05-13T08:08:52.113Z,38.76
2019-05-13T08:11:23.991Z,41.74
2019-05-13T08:14:04.820Z,42.82
2019-05-13T08:16:56.862Z,40.66
2019-05-13T08:19:36.949Z,40.04
2019-05-13T08:22:37.311Z,38.66
2019-05-13T08:25:38.942Z,37.50
2019-05-13T08:28:12.303Z,38.60
2019-05-13T08:30:43.227Z,38.24
2019-05-13T08:33:14.538Z,38.46
2019-05-13T08:35:47.215Z,39.14
2019-05-13T08:38:18.638Z,39.67
2019-05-13T08:40:51.246Z,40.48
2019-05-13T08:43:22.785Z,39.69
2019-05-13T08:45:55.819Z,39.81
2019-05-13T08:48:27.371Z,37.88
2019-05-13T08:50:58.649Z,36.76
2019-05-13T08:53:31.744Z,37.65
2019-05-13T08:56:02.872Z,37.19
2019-05-13T08:58:34.113Z,38.65
2019-05-13T09:01:05.538Z,34.74
2019-05-13T09:03:36.780Z,33.11
2019-05-13T09:06:08.277Z,34.41
2019-05-13T09:08:41.792Z,36.25
2019-05-13T09:11:13.075Z,35.53
2019-05-13T09:13:44.276Z,33.71
2019-05-13T09:16:15.577Z,34.78
2019-05-13T09:18:52.069Z,35.40
2019-05-13T09:21:22.655Z,33.69
2019-05-13T09:23:56.699Z,34.53
2019-05-13T09:26:31.636Z,34.97
2019-05-13T09:29:02.660Z,34.99
2019-05-13T09:31:33.934Z,34.52
2019-05-13T09:34:05.244Z,36.75
2019-05-13T09:36:36.512Z,36.35
2019-05-13T09:39:12.409Z,35.37
2019-05-13T09:41:44.605Z,34.53
2019-05-13T09:44:15.606Z,33.46
2019-05-13T09:46:46.906Z,33.94
2019-05-13T09:49:20.060Z,35.16
2019-05-13T09:51:52.273Z,36.85
2019-05-13T09:54:24.162Z,35.61
2019-05-13T09:56:55.648Z,35.37
2019-05-13T09:59:26.912Z,37.47
2019-05-13T10:01:58.194Z,35.83
2019-05-13T10:04:31.728Z,36.30
2019-05-13T10:07:02.838Z,35.15
2019-05-13T10:09:34.165Z,33.30
2019-05-13T10:12:05.913Z,33.47
2019-05-13T10:14:37.074Z,33.05
2019-05-13T10:17:08.307Z,34.10
2019-05-13T10:19:41.779Z,33.77
2019-05-13T10:22:12.451Z,32.69
2019-05-13T10:24:43.706Z,33.95
2019-05-13T10:27:18.883Z,31.89
2019-05-13T10:29:48.578Z,31.49
2019-05-13T10:32:21.984Z,30.71
2019-05-13T10:34:54.389Z,31.55
2019-05-13T10:37:25.900Z,29.93
2019-05-13T10:39:57.238Z,31.75
2019-05-13T10:42:28.577Z,30.30
2019-05-13T10:45:02.575Z,29.78
2019-05-13T10:47:32.837Z,29.09
2019-05-13T10:50:04.265Z,31.33
2019-05-13T10:52:35.505Z,31.24
2019-05-13T10:55:07.429Z,30.50
2019-05-13T10:57:38.761Z,29.61
2019-05-13T11:02:44.328Z,28.87
2019-05-13T11:05:15.723Z,28.45
2019-05-13T11:07:46.944Z,28.80
2019-05-13T11:10:24.240Z,28.76
2019-05-13T11:12:55.329Z,27.89
2019-05-13T11:15:26.592Z,27.79
2019-05-13T11:18:03.072Z,29.36
2019-05-13T11:20:44.639Z,28.46
2019-05-13T11:23:23.465Z,27.91
2019-05-13T11:26:03.243Z,27.83
2019-05-13T11:28:34.510Z,27.50
2019-05-13T11:31:05.768Z,28.74
2019-05-13T11:33:36.984Z,28.31
2019-05-13T11:36:08.262Z,29.92
2019-05-13T11:38:43.101Z,28.22
2019-05-13T11:41:12.740Z,28.30
2019-05-13T11:43:45.863Z,29.51
2019-05-13T11:46:17.143Z,28.24
2019-05-13T11:48:48.523Z,28.39
2019-05-13T11:51:19.802Z,28.50
2019-05-13T11:53:52.517Z,28.68
2019-05-13T11:56:24.040Z,30.68
2019-05-13T11:58:55.319Z,28.50
2019-05-13T12:01:26.576Z,30.22
2019-05-13T12:03:57.711Z,28.12
2019-05-13T12:06:28.875Z,26.87
2019-05-13T12:09:03.222Z,27.33
2019-05-13T12:11:33.512Z,26.86
2019-05-13T12:14:05.247Z,26.84
2019-05-13T12:16:36.485Z,29.45
2019-05-13T12:19:07.835Z,29.78
2019-05-13T12:21:43.342Z,26.94
2019-05-13T12:24:12.178Z,28.57
2019-05-13T12:26:43.689Z,27.63
2019-05-13T12:29:18.899Z,26.73
2019-05-13T12:31:52.719Z,26.97
2019-05-13T12:34:23.675Z,27.15
2019-05-13T12:36:54.859Z,28.73
2019-05-13T12:39:26.125Z,27.57
2019-05-13T12:44:27.287Z,30.65
2019-05-13T12:46:58.633Z,25.92
2019-05-13T12:49:33.559Z,27.24
2019-05-13T12:52:04.641Z,26.47
2019-05-13T12:54:35.567Z,26.42
2019-05-13T12:57:11.995Z,26.43
2019-05-13T12:59:43.036Z,25.70
2019-05-13T13:05:08.036Z,24.86
2019-05-13T13:07:18.596Z,26.32
2019-05-13T13:09:53.118Z,26.14
2019-05-13T13:12:33.266Z,25.72
2019-05-13T13:14:55.725Z,29.03
2019-05-13T13:17:26.997Z,27.09
2019-05-13T13:20:06.118Z,26.35
2019-05-13T13:22:32.075Z,27.24
2019-05-13T13:25:04.893Z,27.55
2019-05-13T13:28:03.795Z,27.46
2019-05-13T13:30:10.229Z,26.94
2019-05-13T13:32:45.338Z,27.73
2019-05-13T13:35:15.103Z,27.30
2019-05-13T13:37:46.419Z,25.75
2019-05-13T13:40:25.900Z,26.28
2019-05-13T13:42:52.983Z,26.04
2019-05-13T13:45:36.802Z,26.07
2019-05-13T13:48:04.442Z,25.06
2019-05-13T13:50:37.533Z,27.96
2019-05-13T13:53:13.888Z,27.90
2019-05-13T13:55:47.759Z,27.88
2019-05-13T13:58:25.468Z,26.32
2019-05-13T14:01:05.688Z,25.04
2019-05-13T14:03:32.956Z,27.78
2019-05-13T14:06:06.354Z,25.02
2019-05-13T14:06:32.810Z,28.68
2019-05-13T14:07:12.861Z,25.45
2019-05-13T14:08:37.148Z,28.42
2019-05-13T14:11:08.307Z,28.41
2019-05-13T14:13:39.658Z,27.11
2019-05-13T14:16:29.148Z,28.28
2019-05-13T14:18:55.359Z,26.44
2019-05-13T14:21:32.424Z,26.06
2019-05-13T14:24:05.949Z,24.43
2019-05-13T14:26:43.204Z,25.02
2019-05-13T14:29:18.210Z,23.46
2019-05-13T14:31:51.828Z,27.42
2019-05-13T14:34:22.371Z,26.98
2019-05-13T14:36:53.738Z,28.46
2019-05-13T14:39:24.991Z,25.23
2019-05-13T14:41:56.250Z,27.89
2019-05-13T14:44:27.474Z,24.81
2019-05-13T14:46:58.722Z,22.95
2019-05-13T14:49:31.734Z,23.75
2019-05-13T14:52:02.838Z,23.88
2019-05-13T14:54:34.167Z,23.87
2019-05-13T14:57:05.462Z,25.56
2019-05-13T14:59:36.721Z,26.12
2019-05-13T15:02:07.897Z,24.80
2019-05-13T15:04:41.738Z,24.37
2019-05-13T15:07:12.284Z,23.30
2019-05-13T15:09:46.670Z,23.65
2019-05-13T15:12:18.329Z,24.00
2019-05-13T15:14:52.068Z,23.97
2019-05-13T15:17:22.572Z,23.30
2019-05-13T15:20:09.525Z,23.78
2019-05-13T15:22:42.474Z,25.02
2019-05-13T15:25:14.097Z,23.52
2019-05-13T15:27:45.352Z,23.39
2019-05-13T15:30:21.813Z,24.96
2019-05-13T15:33:01.581Z,23.46
2019-05-13T15:35:32.237Z,22.75
2019-05-13T15:38:03.514Z,23.15
2019-05-13T15:40:34.951Z,23.28
2019-05-13T15:43:06.200Z,24.11
2019-05-13T15:45:37.492Z,23.51
2019-05-13T15:48:08.779Z,24.18
2019-05-13T15:50:42.042Z,23.53
2019-05-13T15:53:13.062Z,23.08
2019-05-13T15:55:44.295Z,23.73
2019-05-13T15:58:15.466Z,23.44
2019-05-13T16:00:46.736Z,20.92
2019-05-13T16:03:17.973Z,20.60
2019-05-13T16:05:51.507Z,20.55
2019-05-13T16:08:22.080Z,22.58
2019-05-13T16:10:53.589Z,20.76
2019-05-13T16:13:24.800Z,20.75
2019-05-13T16:15:56.104Z,23.70
2019-05-13T16:18:27.325Z,23.03
2019-05-13T16:20:58.587Z,22.57
2019-05-13T16:23:32.481Z,24.05
2019-05-13T16:26:02.737Z,23.79
2019-05-13T16:28:33.971Z,24.04
2019-05-13T16:31:05.294Z,24.81
2019-05-13T16:33:36.569Z,25.63
2019-05-13T16:36:07.877Z,25.72
2019-05-13T16:38:41.418Z,27.42
2019-05-13T16:41:12.686Z,26.22
2019-05-13T16:43:44.104Z,26.97
2019-05-13T16:46:15.379Z,27.80
2019-05-13T16:48:46.606Z,29.50
2019-05-13T16:51:17.800Z,28.74
2019-05-13T16:53:49.066Z,28.68
2019-05-13T16:56:27.836Z,27.89
2019-05-13T16:58:53.186Z,28.73
2019-05-13T17:01:26.840Z,29.44
2019-05-13T17:03:58.085Z,29.87
2019-05-13T17:06:29.386Z,28.46
2019-05-13T17:09:01.996Z,29.37
2019-05-13T17:11:33.403Z,29.43
2019-05-13T17:14:11.669Z,30.70
2019-05-13T17:16:42.982Z,30.54
2019-05-13T17:19:14.332Z,32.96
2019-05-13T17:21:45.424Z,31.68
2019-05-13T17:24:16.689Z,30.16
2019-05-13T17:26:47.982Z,30.44
2019-05-13T17:29:21.146Z,29.99
2019-05-13T17:31:52.119Z,32.25
2019-05-13T17:34:23.261Z,29.65
2019-05-13T17:36:54.570Z,30.15
2019-05-13T17:39:26.026Z,30.33
2019-05-13T17:41:57.298Z,30.07
2019-05-13T17:44:28.663Z,30.37
2019-05-13T17:47:01.730Z,30.88
2019-05-13T17:49:33.032Z,31.11
2019-05-13T17:52:04.318Z,30.24
2019-05-13T17:54:35.918Z,29.68
2019-05-13T17:57:07.443Z,29.85
2019-05-13T17:59:38.856Z,30.81
2019-05-13T18:02:12.856Z,30.49
2019-05-13T18:04:49.268Z,30.08
2019-05-13T18:07:23.488Z,32.87
2019-05-13T18:09:57.793Z,32.29
2019-05-13T18:12:29.301Z,32.32
2019-05-13T18:15:02.501Z,32.19
2019-05-13T18:17:36.231Z,32.80
2019-05-13T18:20:08.576Z,31.61
2019-05-13T18:22:42.405Z,31.71
2019-05-13T18:25:13.979Z,34.28
2019-05-13T18:27:45.271Z,34.34
2019-05-13T18:30:16.933Z,33.60
2019-05-13T18:32:51.803Z,35.33
2019-05-13T18:35:23.261Z,34.31
2019-05-13T18:37:56.889Z,34.59
2019-05-13T18:40:33.766Z,33.04
2019-05-13T18:43:11.177Z,33.38
2019-05-13T18:45:42.527Z,34.15
2019-05-13T18:51:11.871Z,34.12
2019-05-13T18:53:43.326Z,33.32
2019-05-13T18:56:14.634Z,32.79
2019-05-13T18:58:48.639Z,32.98
2019-05-13T19:01:21.564Z,33.53
2019-05-13T19:03:53.030Z,33.65
2019-05-13T19:06:27.245Z,34.96
2019-05-13T19:09:05.908Z,36.02
2019-05-13T19:11:38.273Z,36.03
2019-05-13T19:14:12.255Z,36.77
2019-05-13T19:16:46.315Z,36.81
2019-05-13T19:19:20.680Z,37.14
2019-05-13T19:21:54.471Z,37.20
2019-05-13T19:24:25.702Z,35.80
2019-05-13T19:27:01.614Z,36.46
2019-05-13T19:29:35.291Z,35.83
2019-05-13T19:32:13.546Z,36.71
2019-05-13T19:34:47.192Z,37.52
2019-05-13T19:37:22.488Z,35.95
2019-05-13T19:39:54.041Z,35.82
2019-05-13T19:42:25.576Z,38.07
2019-05-13T19:44:56.807Z,36.86
2019-05-13T19:47:28.149Z,36.92
2019-05-13T19:50:01.922Z,38.93
2019-05-13T19:52:32.289Z,38.92
2019-05-13T19:55:03.581Z,39.46
2019-05-13T19:57:34.903Z,38.15
2019-05-13T20:00:09.971Z,37.90
2019-05-13T20:02:42.053Z,37.39
2019-05-13T20:05:13.091Z,38.02
2019-05-13T20:07:44.384Z,38.94
2019-05-13T20:10:16.066Z,38.20
2019-05-13T20:12:48.197Z,38.69
2019-05-13T20:15:22.958Z,39.07
2019-05-13T20:17:57.183Z,39.13
2019-05-13T20:20:32.941Z,38.15
2019-05-13T20:23:17.610Z,39.55
2019-05-13T20:25:52.407Z,40.07
2019-05-13T20:28:23.743Z,40.06
2019-05-13T20:30:55.027Z,40.47
2019-05-13T20:33:26.378Z,40.71
2019-05-13T20:35:57.627Z,40.63
2019-05-13T20:38:31.458Z,40.10
2019-05-13T20:41:02.095Z,40.74
2019-05-13T20:43:35.197Z,41.12
2019-05-13T20:49:31.659Z,40.86
2019-05-13T20:52:02.947Z,41.25
2019-05-13T20:54:34.277Z,41.20
2019-05-13T20:57:06.604Z,42.48
2019-05-13T20:59:37.803Z,41.66
2019-05-13T21:02:09.021Z,42.68
2019-05-13T21:04:40.378Z,42.79
2019-05-13T21:07:11.689Z,42.74
2019-05-13T21:09:43.029Z,43.06
2019-05-13T21:12:14.559Z,43.29
2019-05-13T21:14:45.799Z,43.87
2019-05-13T21:17:18.392Z,43.80
2019-05-13T21:19:52.822Z,44.13
2019-05-13T21:22:26.846Z,44.29
2019-05-13T21:25:02.011Z,44.72
2019-05-13T21:27:31.543Z,44.91
2019-05-13T21:30:02.857Z,45.39
2019-05-13T21:32:34.068Z,45.89
2019-05-13T21:35:05.539Z,46.01
2019-05-13T21:37:36.792Z,46.37
2019-05-13T21:40:11.135Z,47.66
2019-05-13T21:42:42.137Z,47.02
2019-05-13T21:45:13.662Z,47.21
2019-05-13T21:47:44.809Z,47.77
2019-05-13T21:50:16.071Z,47.93
2019-05-13T21:52:47.180Z,48.73
2019-05-13T21:55:18.465Z,48.36
2019-05-13T21:57:49.730Z,48.51
2019-05-13T22:00:24.337Z,49.01
2019-05-13T22:02:55.594Z,49.13
2019-05-13T22:05:26.855Z,49.52
2019-05-13T22:07:57.992Z,49.71
2019-05-13T22:10:31.102Z,49.84
2019-05-13T22:13:02.076Z,49.86
2019-05-13T22:15:33.437Z,50.12
2019-05-13T22:18:04.658Z,50.31
2019-05-13T22:20:47.385Z,50.21
2019-05-13T22:23:08.809Z,50.59
2019-05-13T22:25:43.396Z,50.72
2019-05-13T22:28:12.896Z,50.80
2019-05-13T22:30:44.167Z,51.14
2019-05-13T22:33:15.427Z,51.54
2019-05-13T22:35:46.705Z,51.74
2019-05-13T22:38:17.928Z,51.70
2019-05-13T22:40:49.208Z,52.11
2019-05-13T22:43:21.160Z,52.20
2019-05-13T22:45:52.553Z,52.35
2019-05-13T22:48:23.748Z,52.65
2019-05-13T22:50:55.067Z,53.01
2019-05-13T22:53:26.310Z,53.13
2019-05-13T22:55:57.546Z,53.40
2019-05-13T22:58:28.750Z,53.36
2019-05-13T23:01:02.388Z,53.62
2019-05-13T23:03:32.942Z,53.87
2019-05-13T23:06:04.169Z,54.40
2019-05-13T23:08:35.317Z,54.79
2019-05-13T23:11:06.586Z,54.79
2019-05-13T23:13:37.754Z,55.17
2019-05-13T23:16:11.404Z,55.52
2019-05-13T23:18:42.294Z,55.53
2019-05-13T23:21:14.350Z,55.59
2019-05-13T23:23:45.565Z,55.82
2019-05-13T23:26:16.768Z,56.46
2019-05-13T23:28:48.000Z,56.53
2019-05-13T23:31:19.284Z,56.84
2019-05-13T23:33:50.455Z,57.18
2019-05-13T23:36:21.713Z,57.56
2019-05-13T23:38:52.959Z,57.72
2019-05-13T23:41:24.211Z,57.74
2019-05-13T23:43:55.446Z,58.14
2019-05-13T23:46:26.733Z,58.16
2019-05-13T23:48:57.966Z,58.68
2019-05-13T23:51:29.172Z,59.12
2019-05-13T23:54:01.601Z,59.87
2019-05-13T23:56:32.930Z,60.33
2019-05-13T23:59:04.224Z,60.99
